sensor_id;sensor_type;location;lat;lon;timestamp;P1;durP1;ratioP1;P2;durP2;ratioP2
8986;SDS011;4529;51.360;12.474;2022-09-09T00:04:00;1.67;;;1.43;;
8986;SDS011;4529;51.360;12.474;2022-09-09T00:09:04;1.60;;;1.50;;
8986;SDS011;4529;51.360;12.474;2022-09-09T00:19:28;1.90;;;1.60;;
8986;SDS011;4529;51.360;12.474;2022-09-09T00:24:41;1.80;;;1.70;;
8986;SDS011;4529;51.360;12.474;2022-09-09T00:29:58;1.80;;;1.70;;
8986;SDS011;4529;51.360;12.474;2022-09-09T00:35:04;2.33;;;1.67;;
8986;SDS011;4529;51.360;12.474;2022-09-09T00:40:13;2.57;;;1.73;;
8986;SDS011;4529;51.360;12.474;2022-09-09T00:51:13;1.70;;;1.60;;
8986;SDS011;4529;51.360;12.474;2022-09-09T00:56:14;4.20;;;1.77;;
8986;SDS011;4529;51.360;12.474;2022-09-09T01:01:16;2.23;;;1.60;;
8986;SDS011;4529;51.360;12.474;2022-09-09T01:06:30;2.43;;;1.57;;
8986;SDS011;4529;51.360;12.474;2022-09-09T01:22:38;2.90;;;1.63;;
8986;SDS011;4529;51.360;12.474;2022-09-09T01:27:44;1.50;;;1.40;;
8986;SDS011;4529;51.360;12.474;2022-09-09T01:32:49;2.87;;;1.67;;
8986;SDS011;4529;51.360;12.474;2022-09-09T01:37:51;1.80;;;1.70;;
8986;SDS011;4529;51.360;12.474;2022-09-09T01:42:55;1.90;;;1.70;;
8986;SDS011;4529;51.360;12.474;2022-09-09T01:47:58;2.23;;;1.60;;
8986;SDS011;4529;51.360;12.474;2022-09-09T01:53:02;1.97;;;1.50;;
8986;SDS011;4529;51.360;12.474;2022-09-09T01:58:10;1.53;;;1.43;;
8986;SDS011;4529;51.360;12.474;2022-09-09T02:03:27;2.13;;;1.60;;
8986;SDS011;4529;51.360;12.474;2022-09-09T02:08:42;2.23;;;1.43;;
8986;SDS011;4529;51.360;12.474;2022-09-09T02:14:00;2.23;;;1.50;;
8986;SDS011;4529;51.360;12.474;2022-09-09T02:19:14;1.90;;;1.70;;
8986;SDS011;4529;51.360;12.474;2022-09-09T02:24:17;3.43;;;1.60;;
8986;SDS011;4529;51.360;12.474;2022-09-09T02:29:22;1.57;;;1.43;;
8986;SDS011;4529;51.360;12.474;2022-09-09T02:39:33;2.10;;;1.53;;
8986;SDS011;4529;51.360;12.474;2022-09-09T02:44:36;2.57;;;1.93;;
8986;SDS011;4529;51.360;12.474;2022-09-09T02:54:48;1.53;;;1.43;;
8986;SDS011;4529;51.360;12.474;2022-09-09T02:59:52;1.97;;;1.60;;
8986;SDS011;4529;51.360;12.474;2022-09-09T03:04:55;3.13;;;1.47;;
8986;SDS011;4529;51.360;12.474;2022-09-09T03:09:59;2.20;;;1.60;;
8986;SDS011;4529;51.360;12.474;2022-09-09T03:15:03;3.17;;;1.60;;
8986;SDS011;4529;51.360;12.474;2022-09-09T03:20:06;1.60;;;1.50;;
8986;SDS011;4529;51.360;12.474;2022-09-09T03:25:10;1.40;;;1.30;;
8986;SDS011;4529;51.360;12.474;2022-09-09T03:30:13;3.33;;;1.80;;
8986;SDS011;4529;51.360;12.474;2022-09-09T03:35:17;2.73;;;1.40;;
8986;SDS011;4529;51.360;12.474;2022-09-09T03:40:20;3.50;;;1.67;;
8986;SDS011;4529;51.360;12.474;2022-09-09T03:45:23;1.33;;;1.30;;
8986;SDS011;4529;51.360;12.474;2022-09-09T03:50:27;3.33;;;1.40;;
8986;SDS011;4529;51.360;12.474;2022-09-09T03:55:30;1.40;;;1.27;;
8986;SDS011;4529;51.360;12.474;2022-09-09T04:00:34;1.40;;;1.30;;
8986;SDS011;4529;51.360;12.474;2022-09-09T04:05:39;1.97;;;1.40;;
8986;SDS011;4529;51.360;12.474;2022-09-09T04:10:44;3.00;;;1.40;;
8986;SDS011;4529;51.360;12.474;2022-09-09T04:15:55;2.43;;;1.40;;
8986;SDS011;4529;51.360;12.474;2022-09-09T04:20:58;4.00;;;1.67;;
8986;SDS011;4529;51.360;12.474;2022-09-09T04:26:02;2.33;;;1.40;;
8986;SDS011;4529;51.360;12.474;2022-09-09T04:31:07;2.13;;;1.37;;
8986;SDS011;4529;51.360;12.474;2022-09-09T04:36:10;1.93;;;1.30;;
8986;SDS011;4529;51.360;12.474;2022-09-09T04:41:15;2.33;;;1.50;;
8986;SDS011;4529;51.360;12.474;2022-09-09T04:46:19;1.93;;;1.60;;
8986;SDS011;4529;51.360;12.474;2022-09-09T04:51:23;1.73;;;1.63;;
8986;SDS011;4529;51.360;12.474;2022-09-09T04:56:27;2.10;;;1.60;;
8986;SDS011;4529;51.360;12.474;2022-09-09T05:01:31;2.33;;;1.67;;
8986;SDS011;4529;51.360;12.474;2022-09-09T05:06:35;1.60;;;1.50;;
8986;SDS011;4529;51.360;12.474;2022-09-09T05:11:39;3.03;;;1.70;;
8986;SDS011;4529;51.360;12.474;2022-09-09T05:16:46;1.77;;;1.37;;
8986;SDS011;4529;51.360;12.474;2022-09-09T05:21:49;2.30;;;1.40;;
8986;SDS011;4529;51.360;12.474;2022-09-09T05:26:54;1.90;;;1.40;;
8986;SDS011;4529;51.360;12.474;2022-09-09T05:31:58;2.47;;;1.40;;
8986;SDS011;4529;51.360;12.474;2022-09-09T05:37:01;3.57;;;1.40;;
8986;SDS011;4529;51.360;12.474;2022-09-09T05:42:05;2.03;;;1.20;;
8986;SDS011;4529;51.360;12.474;2022-09-09T05:47:08;1.73;;;1.50;;
8986;SDS011;4529;51.360;12.474;2022-09-09T05:52:12;2.50;;;1.33;;
8986;SDS011;4529;51.360;12.474;2022-09-09T05:57:16;1.43;;;1.20;;
8986;SDS011;4529;51.360;12.474;2022-09-09T06:02:20;5.13;;;1.40;;
8986;SDS011;4529;51.360;12.474;2022-09-09T06:07:24;1.53;;;1.30;;
8986;SDS011;4529;51.360;12.474;2022-09-09T06:12:28;1.97;;;1.43;;
8986;SDS011;4529;51.360;12.474;2022-09-09T06:17:31;1.37;;;1.27;;
8986;SDS011;4529;51.360;12.474;2022-09-09T06:22:36;2.83;;;1.27;;
8986;SDS011;4529;51.360;12.474;2022-09-09T06:27:39;2.40;;;1.40;;
8986;SDS011;4529;51.360;12.474;2022-09-09T06:32:42;1.97;;;1.27;;
8986;SDS011;4529;51.360;12.474;2022-09-09T06:37:47;1.77;;;1.40;;
8986;SDS011;4529;51.360;12.474;2022-09-09T06:42:51;3.63;;;1.50;;
8986;SDS011;4529;51.360;12.474;2022-09-09T06:47:55;1.60;;;1.33;;
8986;SDS011;4529;51.360;12.474;2022-09-09T06:52:59;1.40;;;1.20;;
8986;SDS011;4529;51.360;12.474;2022-09-09T06:58:07;2.00;;;1.00;;
8986;SDS011;4529;51.360;12.474;2022-09-09T07:03:07;2.47;;;1.33;;
8986;SDS011;4529;51.360;12.474;2022-09-09T07:08:11;2.07;;;1.20;;
8986;SDS011;4529;51.360;12.474;2022-09-09T07:13:15;3.53;;;1.50;;
8986;SDS011;4529;51.360;12.474;2022-09-09T07:18:19;1.87;;;1.50;;
8986;SDS011;4529;51.360;12.474;2022-09-09T07:23:23;2.97;;;1.60;;
8986;SDS011;4529;51.360;12.474;2022-09-09T07:28:26;3.10;;;1.67;;
8986;SDS011;4529;51.360;12.474;2022-09-09T07:33:30;3.37;;;1.40;;
8986;SDS011;4529;51.360;12.474;2022-09-09T07:38:40;2.93;;;1.50;;
8986;SDS011;4529;51.360;12.474;2022-09-09T07:43:43;4.00;;;1.43;;
8986;SDS011;4529;51.360;12.474;2022-09-09T07:48:47;1.90;;;1.40;;
8986;SDS011;4529;51.360;12.474;2022-09-09T07:53:53;1.80;;;1.40;;
8986;SDS011;4529;51.360;12.474;2022-09-09T07:58:56;1.93;;;1.30;;
8986;SDS011;4529;51.360;12.474;2022-09-09T08:04:00;3.33;;;1.30;;
8986;SDS011;4529;51.360;12.474;2022-09-09T08:09:03;1.70;;;1.40;;
8986;SDS011;4529;51.360;12.474;2022-09-09T08:14:06;1.77;;;1.30;;
8986;SDS011;4529;51.360;12.474;2022-09-09T08:19:10;1.87;;;1.20;;
8986;SDS011;4529;51.360;12.474;2022-09-09T08:29:17;1.17;;;1.03;;
8986;SDS011;4529;51.360;12.474;2022-09-09T08:34:21;1.73;;;1.03;;
8986;SDS011;4529;51.360;12.474;2022-09-09T08:39:25;1.70;;;1.10;;
8986;SDS011;4529;51.360;12.474;2022-09-09T08:50:28;1.33;;;1.10;;
8986;SDS011;4529;51.360;12.474;2022-09-09T09:06:20;2.93;;;1.20;;
8986;SDS011;4529;51.360;12.474;2022-09-09T09:11:34;1.97;;;1.23;;
8986;SDS011;4529;51.360;12.474;2022-09-09T09:16:45;1.10;;;1.00;;
8986;SDS011;4529;51.360;12.474;2022-09-09T09:21:59;1.77;;;1.20;;
8986;SDS011;4529;51.360;12.474;2022-09-09T09:27:25;3.13;;;1.20;;
8986;SDS011;4529;51.360;12.474;2022-09-09T09:32:38;2.70;;;1.50;;
8986;SDS011;4529;51.360;12.474;2022-09-09T09:37:41;2.80;;;1.20;;
8986;SDS011;4529;51.360;12.474;2022-09-09T09:42:52;1.20;;;1.10;;
8986;SDS011;4529;51.360;12.474;2022-09-09T09:48:05;4.23;;;1.30;;
8986;SDS011;4529;51.360;12.474;2022-09-09T09:53:04;1.17;;;1.00;;
8986;SDS011;4529;51.360;12.474;2022-09-09T09:58:13;2.10;;;1.10;;
8986;SDS011;4529;51.360;12.474;2022-09-09T10:03:26;1.73;;;1.20;;
8986;SDS011;4529;51.360;12.474;2022-09-09T10:08:32;2.93;;;1.13;;
8986;SDS011;4529;51.360;12.474;2022-09-09T10:13:55;1.53;;;1.00;;
8986;SDS011;4529;51.360;12.474;2022-09-09T10:19:21;3.97;;;1.30;;
8986;SDS011;4529;51.360;12.474;2022-09-09T10:35:52;1.33;;;1.00;;
8986;SDS011;4529;51.360;12.474;2022-09-09T10:41:11;1.57;;;1.20;;
8986;SDS011;4529;51.360;12.474;2022-09-09T10:46:51;1.93;;;1.43;;
8986;SDS011;4529;51.360;12.474;2022-09-09T10:52:18;1.30;;;1.20;;
8986;SDS011;4529;51.360;12.474;2022-09-09T10:57:34;2.77;;;1.30;;
8986;SDS011;4529;51.360;12.474;2022-09-09T11:02:42;1.87;;;1.10;;
8986;SDS011;4529;51.360;12.474;2022-09-09T11:08:02;1.97;;;1.33;;
8986;SDS011;4529;51.360;12.474;2022-09-09T11:13:15;1.83;;;1.20;;
8986;SDS011;4529;51.360;12.474;2022-09-09T11:18:19;3.07;;;1.47;;
8986;SDS011;4529;51.360;12.474;2022-09-09T11:23:25;2.73;;;1.27;;
8986;SDS011;4529;51.360;12.474;2022-09-09T11:28:46;2.77;;;1.20;;
8986;SDS011;4529;51.360;12.474;2022-09-09T11:33:57;1.30;;;1.10;;
8986;SDS011;4529;51.360;12.474;2022-09-09T11:39:10;2.60;;;1.30;;
8986;SDS011;4529;51.360;12.474;2022-09-09T11:44:29;1.83;;;1.30;;
8986;SDS011;4529;51.360;12.474;2022-09-09T11:49:29;1.47;;;1.10;;
8986;SDS011;4529;51.360;12.474;2022-09-09T11:54:47;3.00;;;1.20;;
8986;SDS011;4529;51.360;12.474;2022-09-09T11:59:51;2.73;;;1.23;;
8986;SDS011;4529;51.360;12.474;2022-09-09T12:05:01;1.47;;;1.10;;
8986;SDS011;4529;51.360;12.474;2022-09-09T12:10:30;2.30;;;1.33;;
8986;SDS011;4529;51.360;12.474;2022-09-09T12:15:36;2.87;;;1.20;;
8986;SDS011;4529;51.360;12.474;2022-09-09T12:20:40;1.60;;;1.20;;
8986;SDS011;4529;51.360;12.474;2022-09-09T12:36:37;1.57;;;0.97;;
8986;SDS011;4529;51.360;12.474;2022-09-09T12:41:40;1.70;;;1.13;;
8986;SDS011;4529;51.360;12.474;2022-09-09T12:46:45;1.37;;;1.10;;
8986;SDS011;4529;51.360;12.474;2022-09-09T12:51:48;2.83;;;1.20;;
8986;SDS011;4529;51.360;12.474;2022-09-09T12:56:52;2.50;;;1.30;;
8986;SDS011;4529;51.360;12.474;2022-09-09T13:01:57;2.93;;;1.10;;
8986;SDS011;4529;51.360;12.474;2022-09-09T13:07:08;2.93;;;1.23;;
8986;SDS011;4529;51.360;12.474;2022-09-09T13:12:12;1.43;;;0.83;;
8986;SDS011;4529;51.360;12.474;2022-09-09T13:17:23;1.23;;;1.10;;
8986;SDS011;4529;51.360;12.474;2022-09-09T13:22:35;1.47;;;1.20;;
8986;SDS011;4529;51.360;12.474;2022-09-09T13:28:01;1.07;;;0.90;;
8986;SDS011;4529;51.360;12.474;2022-09-09T13:38:15;2.40;;;1.10;;
8986;SDS011;4529;51.360;12.474;2022-09-09T13:43:19;1.23;;;0.90;;
8986;SDS011;4529;51.360;12.474;2022-09-09T13:48:21;1.60;;;0.90;;
8986;SDS011;4529;51.360;12.474;2022-09-09T13:53:25;1.27;;;0.90;;
8986;SDS011;4529;51.360;12.474;2022-09-09T13:58:28;2.17;;;1.07;;
8986;SDS011;4529;51.360;12.474;2022-09-09T14:03:31;2.90;;;1.00;;
8986;SDS011;4529;51.360;12.474;2022-09-09T14:08:35;5.50;;;1.20;;
8986;SDS011;4529;51.360;12.474;2022-09-09T14:13:38;1.83;;;0.80;;
8986;SDS011;4529;51.360;12.474;2022-09-09T14:18:42;4.23;;;1.30;;
8986;SDS011;4529;51.360;12.474;2022-09-09T14:23:47;2.53;;;1.23;;
8986;SDS011;4529;51.360;12.474;2022-09-09T14:28:51;2.20;;;0.90;;
8986;SDS011;4529;51.360;12.474;2022-09-09T14:33:55;4.93;;;1.13;;
8986;SDS011;4529;51.360;12.474;2022-09-09T14:38:59;1.17;;;1.00;;
8986;SDS011;4529;51.360;12.474;2022-09-09T14:44:04;1.13;;;0.97;;
8986;SDS011;4529;51.360;12.474;2022-09-09T14:49:07;3.90;;;1.20;;
8986;SDS011;4529;51.360;12.474;2022-09-09T14:54:11;1.67;;;1.20;;
8986;SDS011;4529;51.360;12.474;2022-09-09T14:59:16;1.77;;;1.03;;
8986;SDS011;4529;51.360;12.474;2022-09-09T15:04:20;2.10;;;1.07;;
8986;SDS011;4529;51.360;12.474;2022-09-09T15:09:24;2.47;;;1.23;;
8986;SDS011;4529;51.360;12.474;2022-09-09T15:14:28;2.97;;;1.40;;
8986;SDS011;4529;51.360;12.474;2022-09-09T15:19:32;1.40;;;1.03;;
8986;SDS011;4529;51.360;12.474;2022-09-09T15:24:41;1.83;;;1.00;;
8986;SDS011;4529;51.360;12.474;2022-09-09T15:29:45;2.07;;;1.20;;
8986;SDS011;4529;51.360;12.474;2022-09-09T15:34:49;2.37;;;1.10;;
8986;SDS011;4529;51.360;12.474;2022-09-09T15:39:53;2.17;;;1.00;;
8986;SDS011;4529;51.360;12.474;2022-09-09T15:44:57;2.27;;;1.20;;
8986;SDS011;4529;51.360;12.474;2022-09-09T15:50:01;2.20;;;1.10;;
8986;SDS011;4529;51.360;12.474;2022-09-09T15:55:06;1.13;;;1.00;;
8986;SDS011;4529;51.360;12.474;2022-09-09T16:00:10;3.23;;;1.17;;
8986;SDS011;4529;51.360;12.474;2022-09-09T16:05:13;1.93;;;1.30;;
8986;SDS011;4529;51.360;12.474;2022-09-09T16:10:17;1.80;;;1.10;;
8986;SDS011;4529;51.360;12.474;2022-09-09T16:15:21;1.47;;;0.90;;
8986;SDS011;4529;51.360;12.474;2022-09-09T16:20:24;2.23;;;1.07;;
8986;SDS011;4529;51.360;12.474;2022-09-09T16:25:28;1.77;;;0.93;;
8986;SDS011;4529;51.360;12.474;2022-09-09T16:30:31;1.30;;;1.00;;
8986;SDS011;4529;51.360;12.474;2022-09-09T16:35:36;4.67;;;1.13;;
8986;SDS011;4529;51.360;12.474;2022-09-09T16:40:40;2.13;;;1.30;;
8986;SDS011;4529;51.360;12.474;2022-09-09T16:45:44;2.17;;;1.10;;
8986;SDS011;4529;51.360;12.474;2022-09-09T16:50:48;2.13;;;1.40;;
8986;SDS011;4529;51.360;12.474;2022-09-09T16:55:51;3.10;;;1.40;;
8986;SDS011;4529;51.360;12.474;2022-09-09T17:00:57;1.37;;;1.20;;
8986;SDS011;4529;51.360;12.474;2022-09-09T17:05:58;1.93;;;1.20;;
8986;SDS011;4529;51.360;12.474;2022-09-09T17:11:02;1.47;;;1.17;;
8986;SDS011;4529;51.360;12.474;2022-09-09T17:16:06;2.57;;;1.00;;
8986;SDS011;4529;51.360;12.474;2022-09-09T17:21:14;0.93;;;0.93;;
8986;SDS011;4529;51.360;12.474;2022-09-09T17:26:18;1.67;;;1.10;;
8986;SDS011;4529;51.360;12.474;2022-09-09T17:31:21;0.90;;;0.90;;
8986;SDS011;4529;51.360;12.474;2022-09-09T17:36:27;1.67;;;1.07;;
8986;SDS011;4529;51.360;12.474;2022-09-09T17:41:31;1.13;;;1.07;;
8986;SDS011;4529;51.360;12.474;2022-09-09T17:46:36;2.20;;;1.20;;
8986;SDS011;4529;51.360;12.474;2022-09-09T17:51:38;1.57;;;1.23;;
8986;SDS011;4529;51.360;12.474;2022-09-09T17:56:46;2.63;;;1.10;;
8986;SDS011;4529;51.360;12.474;2022-09-09T18:01:47;2.30;;;0.70;;
8986;SDS011;4529;51.360;12.474;2022-09-09T18:06:51;0.73;;;0.73;;
8986;SDS011;4529;51.360;12.474;2022-09-09T18:11:55;2.30;;;0.90;;
8986;SDS011;4529;51.360;12.474;2022-09-09T18:16:59;1.83;;;1.10;;
8986;SDS011;4529;51.360;12.474;2022-09-09T18:22:02;1.20;;;1.10;;
8986;SDS011;4529;51.360;12.474;2022-09-09T18:27:08;0.90;;;0.90;;
8986;SDS011;4529;51.360;12.474;2022-09-09T18:32:12;1.00;;;1.00;;
8986;SDS011;4529;51.360;12.474;2022-09-09T18:37:15;1.00;;;1.00;;
8986;SDS011;4529;51.360;12.474;2022-09-09T18:42:18;1.10;;;1.00;;
8986;SDS011;4529;51.360;12.474;2022-09-09T18:47:23;1.47;;;1.30;;
8986;SDS011;4529;51.360;12.474;2022-09-09T18:52:26;1.13;;;1.13;;
8986;SDS011;4529;51.360;12.474;2022-09-09T18:57:31;2.17;;;1.20;;
8986;SDS011;4529;51.360;12.474;2022-09-09T19:02:35;3.60;;;1.80;;
8986;SDS011;4529;51.360;12.474;2022-09-09T19:07:39;1.57;;;1.47;;
8986;SDS011;4529;51.360;12.474;2022-09-09T19:12:43;4.03;;;1.60;;
8986;SDS011;4529;51.360;12.474;2022-09-09T19:17:47;4.40;;;1.30;;
8986;SDS011;4529;51.360;12.474;2022-09-09T19:22:52;2.47;;;1.60;;
8986;SDS011;4529;51.360;12.474;2022-09-09T19:33:42;1.67;;;1.57;;
8986;SDS011;4529;51.360;12.474;2022-09-09T19:38:45;2.83;;;1.50;;
8986;SDS011;4529;51.360;12.474;2022-09-09T19:43:51;1.90;;;1.70;;
8986;SDS011;4529;51.360;12.474;2022-09-09T19:48:53;1.77;;;1.30;;
8986;SDS011;4529;51.360;12.474;2022-09-09T19:53:58;1.23;;;1.13;;
8986;SDS011;4529;51.360;12.474;2022-09-09T19:59:02;1.70;;;1.40;;
8986;SDS011;4529;51.360;12.474;2022-09-09T20:04:06;3.93;;;1.30;;
8986;SDS011;4529;51.360;12.474;2022-09-09T20:09:13;3.30;;;1.60;;
8986;SDS011;4529;51.360;12.474;2022-09-09T20:14:15;1.47;;;1.37;;
8986;SDS011;4529;51.360;12.474;2022-09-09T20:19:19;1.37;;;1.27;;
8986;SDS011;4529;51.360;12.474;2022-09-09T20:24:23;1.17;;;1.10;;
8986;SDS011;4529;51.360;12.474;2022-09-09T20:29:27;3.33;;;1.40;;
8986;SDS011;4529;51.360;12.474;2022-09-09T20:34:29;1.40;;;1.30;;
8986;SDS011;4529;51.360;12.474;2022-09-09T20:39:33;1.50;;;1.40;;
8986;SDS011;4529;51.360;12.474;2022-09-09T20:44:36;1.83;;;1.40;;
8986;SDS011;4529;51.360;12.474;2022-09-09T20:49:40;2.13;;;1.50;;
8986;SDS011;4529;51.360;12.474;2022-09-09T20:54:44;2.97;;;1.60;;
8986;SDS011;4529;51.360;12.474;2022-09-09T20:59:47;2.73;;;1.80;;
8986;SDS011;4529;51.360;12.474;2022-09-09T21:04:51;1.50;;;1.20;;
8986;SDS011;4529;51.360;12.474;2022-09-09T21:09:55;3.00;;;1.50;;
8986;SDS011;4529;51.360;12.474;2022-09-09T21:14:58;1.40;;;1.30;;
8986;SDS011;4529;51.360;12.474;2022-09-09T21:20:02;3.73;;;1.30;;
8986;SDS011;4529;51.360;12.474;2022-09-09T21:25:06;2.60;;;1.30;;
8986;SDS011;4529;51.360;12.474;2022-09-09T21:30:09;2.67;;;1.40;;
8986;SDS011;4529;51.360;12.474;2022-09-09T21:35:13;1.30;;;1.20;;
8986;SDS011;4529;51.360;12.474;2022-09-09T21:40:17;2.50;;;1.40;;
8986;SDS011;4529;51.360;12.474;2022-09-09T21:45:21;3.50;;;1.30;;
8986;SDS011;4529;51.360;12.474;2022-09-09T21:50:25;1.50;;;1.40;;
8986;SDS011;4529;51.360;12.474;2022-09-09T21:55:31;3.20;;;1.50;;
8986;SDS011;4529;51.360;12.474;2022-09-09T22:00:35;2.37;;;1.60;;
8986;SDS011;4529;51.360;12.474;2022-09-09T22:05:39;3.07;;;1.40;;
8986;SDS011;4529;51.360;12.474;2022-09-09T22:10:42;1.50;;;1.40;;
8986;SDS011;4529;51.360;12.474;2022-09-09T22:15:45;1.97;;;1.40;;
8986;SDS011;4529;51.360;12.474;2022-09-09T22:20:48;3.67;;;1.30;;
8986;SDS011;4529;51.360;12.474;2022-09-09T22:25:52;2.53;;;1.17;;
8986;SDS011;4529;51.360;12.474;2022-09-09T22:30:55;1.80;;;1.30;;
8986;SDS011;4529;51.360;12.474;2022-09-09T22:35:59;2.03;;;1.23;;
8986;SDS011;4529;51.360;12.474;2022-09-09T22:41:03;3.90;;;1.30;;
8986;SDS011;4529;51.360;12.474;2022-09-09T22:46:06;4.93;;;1.33;;
8986;SDS011;4529;51.360;12.474;2022-09-09T22:51:11;1.73;;;1.13;;
8986;SDS011;4529;51.360;12.474;2022-09-09T22:56:15;1.33;;;1.20;;
8986;SDS011;4529;51.360;12.474;2022-09-09T23:01:18;1.30;;;1.20;;
8986;SDS011;4529;51.360;12.474;2022-09-09T23:06:23;3.00;;;0.90;;
8986;SDS011;4529;51.360;12.474;2022-09-09T23:11:28;2.40;;;1.20;;
8986;SDS011;4529;51.360;12.474;2022-09-09T23:16:32;1.63;;;1.13;;
8986;SDS011;4529;51.360;12.474;2022-09-09T23:21:40;3.90;;;1.27;;
8986;SDS011;4529;51.360;12.474;2022-09-09T23:26:44;1.13;;;1.03;;
8986;SDS011;4529;51.360;12.474;2022-09-09T23:31:48;1.30;;;1.03;;
8986;SDS011;4529;51.360;12.474;2022-09-09T23:36:52;3.93;;;1.30;;
8986;SDS011;4529;51.360;12.474;2022-09-09T23:41:56;1.20;;;1.20;;
8986;SDS011;4529;51.360;12.474;2022-09-09T23:46:59;2.83;;;1.20;;
8986;SDS011;4529;51.360;12.474;2022-09-09T23:52:04;1.23;;;1.00;;
8986;SDS011;4529;51.360;12.474;2022-09-09T23:57:07;1.20;;;1.10;;
